sensor_id;sensor_type;location;lat;lon;timestamp;P1;durP1;ratioP1;P2;durP2;ratioP2
11319;SDS011;5715;48.234;14.320;2023-11-19T00:01:55;3.03;;;2.80;;
11319;SDS011;5715;48.234;14.320;2023-11-19T00:04:47;5.73;;;3.07;;
11319;SDS011;5715;48.234;14.320;2023-11-19T00:07:48;3.37;;;3.00;;
11319;SDS011;5715;48.234;14.320;2023-11-19T00:10:39;4.70;;;3.70;;
11319;SDS011;5715;48.234;14.320;2023-11-19T00:13:33;4.33;;;3.40;;
11319;SDS011;5715;48.234;14.320;2023-11-19T00:16:41;4.53;;;4.10;;
11319;SDS011;5715;48.234;14.320;2023-11-19T00:19:32;4.37;;;3.87;;
11319;SDS011;5715;48.234;14.320;2023-11-19T00:22:23;4.13;;;3.20;;
11319;SDS011;5715;48.234;14.320;2023-11-19T00:25:26;5.00;;;3.80;;
11319;SDS011;5715;48.234;14.320;2023-11-19T00:28:33;4.10;;;2.70;;
11319;SDS011;5715;48.234;14.320;2023-11-19T00:31:24;4.30;;;3.83;;
11319;SDS011;5715;48.234;14.320;2023-11-19T00:34:23;2.97;;;2.77;;
11319;SDS011;5715;48.234;14.320;2023-11-19T00:37:17;16.77;;;2.90;;
11319;SDS011;5715;48.234;14.320;2023-11-19T00:40:13;2.70;;;2.50;;
11319;SDS011;5715;48.234;14.320;2023-11-19T00:43:04;7.67;;;4.27;;
11319;SDS011;5715;48.234;14.320;2023-11-19T00:46:20;4.17;;;2.57;;
11319;SDS011;5715;48.234;14.320;2023-11-19T00:49:22;4.40;;;3.47;;
11319;SDS011;5715;48.234;14.320;2023-11-19T00:52:10;5.13;;;3.50;;
11319;SDS011;5715;48.234;14.320;2023-11-19T00:54:58;3.87;;;3.30;;
11319;SDS011;5715;48.234;14.320;2023-11-19T00:57:45;5.10;;;3.70;;
11319;SDS011;5715;48.234;14.320;2023-11-19T01:00:33;4.43;;;4.03;;
11319;SDS011;5715;48.234;14.320;2023-11-19T01:03:21;6.33;;;3.50;;
11319;SDS011;5715;48.234;14.320;2023-11-19T01:06:09;5.17;;;4.13;;
11319;SDS011;5715;48.234;14.320;2023-11-19T01:08:56;2.77;;;2.57;;
11319;SDS011;5715;48.234;14.320;2023-11-19T01:11:45;4.43;;;3.80;;
11319;SDS011;5715;48.234;14.320;2023-11-19T01:14:32;3.93;;;3.63;;
11319;SDS011;5715;48.234;14.320;2023-11-19T01:17:20;4.80;;;3.57;;
11319;SDS011;5715;48.234;14.320;2023-11-19T01:20:07;5.33;;;4.00;;
11319;SDS011;5715;48.234;14.320;2023-11-19T01:22:59;4.07;;;3.07;;
11319;SDS011;5715;48.234;14.320;2023-11-19T01:25:46;3.90;;;3.60;;
11319;SDS011;5715;48.234;14.320;2023-11-19T01:28:35;4.37;;;3.87;;
11319;SDS011;5715;48.234;14.320;2023-11-19T01:31:34;4.90;;;3.40;;
11319;SDS011;5715;48.234;14.320;2023-11-19T01:34:21;4.03;;;3.63;;
11319;SDS011;5715;48.234;14.320;2023-11-19T01:37:09;3.87;;;3.50;;
11319;SDS011;5715;48.234;14.320;2023-11-19T01:39:59;4.27;;;3.87;;
11319;SDS011;5715;48.234;14.320;2023-11-19T01:42:47;4.93;;;3.73;;
11319;SDS011;5715;48.234;14.320;2023-11-19T01:45:36;3.63;;;3.33;;
11319;SDS011;5715;48.234;14.320;2023-11-19T01:48:25;5.40;;;3.80;;
11319;SDS011;5715;48.234;14.320;2023-11-19T01:51:13;5.17;;;3.63;;
11319;SDS011;5715;48.234;14.320;2023-11-19T01:54:03;4.07;;;2.87;;
11319;SDS011;5715;48.234;14.320;2023-11-19T01:56:52;3.47;;;3.17;;
11319;SDS011;5715;48.234;14.320;2023-11-19T01:59:43;4.57;;;3.73;;
11319;SDS011;5715;48.234;14.320;2023-11-19T02:02:31;3.93;;;3.07;;
11319;SDS011;5715;48.234;14.320;2023-11-19T02:05:19;4.40;;;3.47;;
11319;SDS011;5715;48.234;14.320;2023-11-19T02:08:08;3.10;;;2.90;;
11319;SDS011;5715;48.234;14.320;2023-11-19T02:10:56;5.93;;;3.13;;
11319;SDS011;5715;48.234;14.320;2023-11-19T02:13:44;3.57;;;3.27;;
11319;SDS011;5715;48.234;14.320;2023-11-19T02:16:31;2.80;;;2.60;;
11319;SDS011;5715;48.234;14.320;2023-11-19T02:19:19;3.53;;;3.23;;
11319;SDS011;5715;48.234;14.320;2023-11-19T02:22:07;5.43;;;3.83;;
11319;SDS011;5715;48.234;14.320;2023-11-19T02:24:56;3.23;;;2.97;;
11319;SDS011;5715;48.234;14.320;2023-11-19T02:27:54;5.10;;;3.53;;
11319;SDS011;5715;48.234;14.320;2023-11-19T02:30:48;5.70;;;4.43;;
11319;SDS011;5715;48.234;14.320;2023-11-19T02:33:36;3.97;;;3.60;;
11319;SDS011;5715;48.234;14.320;2023-11-19T02:36:24;5.73;;;3.83;;
11319;SDS011;5715;48.234;14.320;2023-11-19T02:39:12;3.97;;;3.50;;
11319;SDS011;5715;48.234;14.320;2023-11-19T02:42:00;3.60;;;3.27;;
11319;SDS011;5715;48.234;14.320;2023-11-19T02:44:47;5.17;;;4.17;;
11319;SDS011;5715;48.234;14.320;2023-11-19T02:47:35;5.63;;;3.63;;
11319;SDS011;5715;48.234;14.320;2023-11-19T02:50:23;4.80;;;3.93;;
11319;SDS011;5715;48.234;14.320;2023-11-19T02:53:12;3.50;;;3.20;;
11319;SDS011;5715;48.234;14.320;2023-11-19T02:56:00;4.27;;;3.87;;
11319;SDS011;5715;48.234;14.320;2023-11-19T02:58:52;4.23;;;3.77;;
11319;SDS011;5715;48.234;14.320;2023-11-19T03:01:40;4.87;;;3.73;;
11319;SDS011;5715;48.234;14.320;2023-11-19T03:04:30;3.60;;;3.00;;
11319;SDS011;5715;48.234;14.320;2023-11-19T03:07:18;5.13;;;3.67;;
11319;SDS011;5715;48.234;14.320;2023-11-19T03:10:06;3.47;;;3.10;;
11319;SDS011;5715;48.234;14.320;2023-11-19T03:12:55;3.70;;;3.30;;
11319;SDS011;5715;48.234;14.320;2023-11-19T03:15:44;3.57;;;3.27;;
11319;SDS011;5715;48.234;14.320;2023-11-19T03:18:32;3.77;;;2.87;;
11319;SDS011;5715;48.234;14.320;2023-11-19T03:21:29;3.37;;;3.07;;
11319;SDS011;5715;48.234;14.320;2023-11-19T03:24:18;5.00;;;3.33;;
11319;SDS011;5715;48.234;14.320;2023-11-19T03:27:05;5.83;;;2.97;;
11319;SDS011;5715;48.234;14.320;2023-11-19T03:29:53;2.53;;;2.33;;
11319;SDS011;5715;48.234;14.320;2023-11-19T03:32:41;3.47;;;3.27;;
11319;SDS011;5715;48.234;14.320;2023-11-19T03:35:28;3.43;;;3.13;;
11319;SDS011;5715;48.234;14.320;2023-11-19T03:38:17;5.83;;;3.50;;
11319;SDS011;5715;48.234;14.320;2023-11-19T03:41:11;3.17;;;2.97;;
11319;SDS011;5715;48.234;14.320;2023-11-19T03:44:00;6.47;;;3.40;;
11319;SDS011;5715;48.234;14.320;2023-11-19T03:46:47;2.80;;;2.40;;
11319;SDS011;5715;48.234;14.320;2023-11-19T03:49:35;3.67;;;3.37;;
11319;SDS011;5715;48.234;14.320;2023-11-19T03:52:23;2.33;;;2.17;;
11319;SDS011;5715;48.234;14.320;2023-11-19T03:55:10;3.20;;;2.87;;
11319;SDS011;5715;48.234;14.320;2023-11-19T03:57:59;3.17;;;2.90;;
11319;SDS011;5715;48.234;14.320;2023-11-19T04:00:46;4.60;;;2.97;;
11319;SDS011;5715;48.234;14.320;2023-11-19T04:03:34;2.70;;;2.17;;
11319;SDS011;5715;48.234;14.320;2023-11-19T04:06:23;3.40;;;3.10;;
11319;SDS011;5715;48.234;14.320;2023-11-19T04:09:13;3.07;;;2.87;;
11319;SDS011;5715;48.234;14.320;2023-11-19T04:12:00;4.47;;;3.73;;
11319;SDS011;5715;48.234;14.320;2023-11-19T04:14:48;2.83;;;2.63;;
11319;SDS011;5715;48.234;14.320;2023-11-19T04:17:47;2.53;;;2.30;;
11319;SDS011;5715;48.234;14.320;2023-11-19T04:20:35;2.90;;;2.43;;
11319;SDS011;5715;48.234;14.320;2023-11-19T04:23:23;4.07;;;3.60;;
11319;SDS011;5715;48.234;14.320;2023-11-19T04:26:11;4.03;;;3.63;;
11319;SDS011;5715;48.234;14.320;2023-11-19T04:28:59;3.27;;;2.37;;
11319;SDS011;5715;48.234;14.320;2023-11-19T04:31:47;3.77;;;2.77;;
11319;SDS011;5715;48.234;14.320;2023-11-19T04:34:34;2.30;;;2.10;;
11319;SDS011;5715;48.234;14.320;2023-11-19T04:37:23;9.03;;;2.67;;
11319;SDS011;5715;48.234;14.320;2023-11-19T04:40:10;6.17;;;3.87;;
11319;SDS011;5715;48.234;14.320;2023-11-19T04:42:59;3.67;;;3.37;;
11319;SDS011;5715;48.234;14.320;2023-11-19T04:45:46;2.27;;;2.07;;
11319;SDS011;5715;48.234;14.320;2023-11-19T04:48:34;3.20;;;2.63;;
11319;SDS011;5715;48.234;14.320;2023-11-19T04:51:24;3.20;;;2.40;;
11319;SDS011;5715;48.234;14.320;2023-11-19T04:54:11;3.43;;;2.87;;
11319;SDS011;5715;48.234;14.320;2023-11-19T04:56:59;3.37;;;3.10;;
11319;SDS011;5715;48.234;14.320;2023-11-19T04:59:47;4.13;;;3.23;;
11319;SDS011;5715;48.234;14.320;2023-11-19T05:02:34;2.87;;;2.23;;
11319;SDS011;5715;48.234;14.320;2023-11-19T05:05:22;2.23;;;2.13;;
11319;SDS011;5715;48.234;14.320;2023-11-19T05:08:10;2.67;;;2.27;;
11319;SDS011;5715;48.234;14.320;2023-11-19T05:10:58;2.37;;;2.20;;
11319;SDS011;5715;48.234;14.320;2023-11-19T05:13:46;6.97;;;2.60;;
11319;SDS011;5715;48.234;14.320;2023-11-19T05:16:33;2.83;;;2.07;;
11319;SDS011;5715;48.234;14.320;2023-11-19T05:19:22;2.27;;;2.07;;
11319;SDS011;5715;48.234;14.320;2023-11-19T05:22:09;2.30;;;2.10;;
11319;SDS011;5715;48.234;14.320;2023-11-19T05:24:57;5.03;;;3.00;;
11319;SDS011;5715;48.234;14.320;2023-11-19T05:27:44;2.93;;;2.73;;
11319;SDS011;5715;48.234;14.320;2023-11-19T05:30:32;2.10;;;2.00;;
11319;SDS011;5715;48.234;14.320;2023-11-19T05:33:20;2.10;;;2.00;;
11319;SDS011;5715;48.234;14.320;2023-11-19T05:36:08;2.43;;;2.23;;
11319;SDS011;5715;48.234;14.320;2023-11-19T05:38:57;3.00;;;2.80;;
11319;SDS011;5715;48.234;14.320;2023-11-19T05:41:45;10.93;;;2.70;;
11319;SDS011;5715;48.234;14.320;2023-11-19T05:44:32;21.00;;;2.43;;
11319;SDS011;5715;48.234;14.320;2023-11-19T05:47:23;3.17;;;2.47;;
11319;SDS011;5715;48.234;14.320;2023-11-19T05:50:10;3.20;;;2.67;;
11319;SDS011;5715;48.234;14.320;2023-11-19T05:52:58;2.43;;;2.23;;
11319;SDS011;5715;48.234;14.320;2023-11-19T05:55:46;2.40;;;2.03;;
11319;SDS011;5715;48.234;14.320;2023-11-19T05:58:41;2.37;;;1.97;;
11319;SDS011;5715;48.234;14.320;2023-11-19T06:01:32;3.37;;;2.63;;
11319;SDS011;5715;48.234;14.320;2023-11-19T06:04:23;3.10;;;2.90;;
11319;SDS011;5715;48.234;14.320;2023-11-19T06:07:11;3.77;;;2.57;;
11319;SDS011;5715;48.234;14.320;2023-11-19T06:09:58;2.97;;;2.57;;
11319;SDS011;5715;48.234;14.320;2023-11-19T06:12:46;2.00;;;1.80;;
11319;SDS011;5715;48.234;14.320;2023-11-19T06:15:34;2.07;;;1.97;;
11319;SDS011;5715;48.234;14.320;2023-11-19T06:18:21;2.23;;;2.03;;
11319;SDS011;5715;48.234;14.320;2023-11-19T06:21:10;3.53;;;2.00;;
11319;SDS011;5715;48.234;14.320;2023-11-19T06:23:59;2.37;;;2.20;;
11319;SDS011;5715;48.234;14.320;2023-11-19T06:26:46;3.73;;;3.10;;
11319;SDS011;5715;48.234;14.320;2023-11-19T06:29:34;3.13;;;2.33;;
11319;SDS011;5715;48.234;14.320;2023-11-19T06:32:23;2.67;;;2.13;;
11319;SDS011;5715;48.234;14.320;2023-11-19T06:35:11;1.80;;;1.70;;
11319;SDS011;5715;48.234;14.320;2023-11-19T06:38:00;2.80;;;2.60;;
11319;SDS011;5715;48.234;14.320;2023-11-19T06:40:49;3.47;;;2.20;;
11319;SDS011;5715;48.234;14.320;2023-11-19T06:43:40;2.57;;;2.40;;
11319;SDS011;5715;48.234;14.320;2023-11-19T06:46:29;2.07;;;1.90;;
11319;SDS011;5715;48.234;14.320;2023-11-19T06:49:16;2.03;;;1.80;;
11319;SDS011;5715;48.234;14.320;2023-11-19T06:52:05;2.63;;;2.43;;
11319;SDS011;5715;48.234;14.320;2023-11-19T06:54:53;2.93;;;2.73;;
11319;SDS011;5715;48.234;14.320;2023-11-19T06:57:54;2.13;;;2.03;;
11319;SDS011;5715;48.234;14.320;2023-11-19T07:00:41;2.20;;;2.10;;
11319;SDS011;5715;48.234;14.320;2023-11-19T07:03:29;2.30;;;2.20;;
11319;SDS011;5715;48.234;14.320;2023-11-19T07:06:16;2.03;;;1.83;;
11319;SDS011;5715;48.234;14.320;2023-11-19T07:09:04;2.37;;;2.17;;
11319;SDS011;5715;48.234;14.320;2023-11-19T07:11:58;2.10;;;2.00;;
11319;SDS011;5715;48.234;14.320;2023-11-19T07:14:48;2.70;;;2.50;;
11319;SDS011;5715;48.234;14.320;2023-11-19T07:17:35;3.07;;;2.83;;
11319;SDS011;5715;48.234;14.320;2023-11-19T07:20:23;2.53;;;2.33;;
11319;SDS011;5715;48.234;14.320;2023-11-19T07:23:11;3.07;;;2.40;;
11319;SDS011;5715;48.234;14.320;2023-11-19T07:25:59;3.53;;;3.23;;
11319;SDS011;5715;48.234;14.320;2023-11-19T07:28:46;2.47;;;2.27;;
11319;SDS011;5715;48.234;14.320;2023-11-19T07:31:35;3.43;;;3.17;;
11319;SDS011;5715;48.234;14.320;2023-11-19T07:34:24;2.53;;;2.33;;
11319;SDS011;5715;48.234;14.320;2023-11-19T07:37:12;2.97;;;2.77;;
11319;SDS011;5715;48.234;14.320;2023-11-19T07:39:59;2.13;;;1.90;;
11319;SDS011;5715;48.234;14.320;2023-11-19T07:42:47;4.10;;;3.47;;
11319;SDS011;5715;48.234;14.320;2023-11-19T07:45:34;2.93;;;2.30;;
11319;SDS011;5715;48.234;14.320;2023-11-19T07:48:22;3.30;;;2.37;;
11319;SDS011;5715;48.234;14.320;2023-11-19T07:51:11;2.83;;;2.50;;
11319;SDS011;5715;48.234;14.320;2023-11-19T07:53:59;1.90;;;1.80;;
11319;SDS011;5715;48.234;14.320;2023-11-19T07:56:47;2.13;;;2.00;;
11319;SDS011;5715;48.234;14.320;2023-11-19T07:59:36;3.50;;;3.20;;
11319;SDS011;5715;48.234;14.320;2023-11-19T08:02:24;2.67;;;2.47;;
11319;SDS011;5715;48.234;14.320;2023-11-19T08:05:11;2.80;;;2.43;;
11319;SDS011;5715;48.234;14.320;2023-11-19T08:07:59;2.87;;;2.60;;
11319;SDS011;5715;48.234;14.320;2023-11-19T08:10:46;2.70;;;2.47;;
11319;SDS011;5715;48.234;14.320;2023-11-19T08:13:34;2.80;;;2.60;;
11319;SDS011;5715;48.234;14.320;2023-11-19T08:16:22;3.87;;;2.90;;
11319;SDS011;5715;48.234;14.320;2023-11-19T08:19:09;2.77;;;2.57;;
11319;SDS011;5715;48.234;14.320;2023-11-19T08:21:57;2.83;;;2.63;;
11319;SDS011;5715;48.234;14.320;2023-11-19T08:24:44;2.17;;;2.00;;
11319;SDS011;5715;48.234;14.320;2023-11-19T08:27:32;2.87;;;2.63;;
11319;SDS011;5715;48.234;14.320;2023-11-19T08:30:20;3.00;;;2.50;;
11319;SDS011;5715;48.234;14.320;2023-11-19T08:33:07;2.20;;;2.00;;
11319;SDS011;5715;48.234;14.320;2023-11-19T08:35:55;2.63;;;2.43;;
11319;SDS011;5715;48.234;14.320;2023-11-19T08:38:42;2.80;;;2.60;;
11319;SDS011;5715;48.234;14.320;2023-11-19T08:41:30;2.70;;;2.20;;
11319;SDS011;5715;48.234;14.320;2023-11-19T08:44:18;2.57;;;2.30;;
11319;SDS011;5715;48.234;14.320;2023-11-19T08:47:06;3.20;;;2.90;;
11319;SDS011;5715;48.234;14.320;2023-11-19T08:49:54;2.17;;;2.07;;
11319;SDS011;5715;48.234;14.320;2023-11-19T08:52:44;3.60;;;2.43;;
11319;SDS011;5715;48.234;14.320;2023-11-19T08:55:32;4.93;;;2.50;;
11319;SDS011;5715;48.234;14.320;2023-11-19T08:58:19;2.53;;;2.30;;
11319;SDS011;5715;48.234;14.320;2023-11-19T09:01:07;2.47;;;2.27;;
11319;SDS011;5715;48.234;14.320;2023-11-19T09:03:56;2.97;;;2.77;;
11319;SDS011;5715;48.234;14.320;2023-11-19T09:06:44;3.93;;;2.90;;
11319;SDS011;5715;48.234;14.320;2023-11-19T09:09:32;3.60;;;3.13;;
11319;SDS011;5715;48.234;14.320;2023-11-19T09:12:22;3.80;;;3.10;;
11319;SDS011;5715;48.234;14.320;2023-11-19T09:15:10;3.77;;;3.20;;
11319;SDS011;5715;48.234;14.320;2023-11-19T09:17:57;6.37;;;4.13;;
11319;SDS011;5715;48.234;14.320;2023-11-19T09:20:45;5.17;;;4.50;;
11319;SDS011;5715;48.234;14.320;2023-11-19T09:23:33;6.77;;;4.40;;
11319;SDS011;5715;48.234;14.320;2023-11-19T09:26:25;9.77;;;4.47;;
11319;SDS011;5715;48.234;14.320;2023-11-19T09:29:13;6.67;;;3.80;;
11319;SDS011;5715;48.234;14.320;2023-11-19T09:32:03;3.27;;;3.00;;
11319;SDS011;5715;48.234;14.320;2023-11-19T09:34:52;6.37;;;4.40;;
11319;SDS011;5715;48.234;14.320;2023-11-19T09:37:40;3.63;;;3.33;;
11319;SDS011;5715;48.234;14.320;2023-11-19T09:40:27;5.07;;;3.87;;
11319;SDS011;5715;48.234;14.320;2023-11-19T09:43:15;5.43;;;3.03;;
11319;SDS011;5715;48.234;14.320;2023-11-19T09:46:04;3.23;;;2.93;;
11319;SDS011;5715;48.234;14.320;2023-11-19T09:48:53;4.57;;;3.90;;
11319;SDS011;5715;48.234;14.320;2023-11-19T09:51:44;7.37;;;4.23;;
11319;SDS011;5715;48.234;14.320;2023-11-19T09:54:32;5.60;;;3.73;;
11319;SDS011;5715;48.234;14.320;2023-11-19T09:57:20;3.20;;;2.70;;
11319;SDS011;5715;48.234;14.320;2023-11-19T10:00:08;5.90;;;4.47;;
11319;SDS011;5715;48.234;14.320;2023-11-19T10:02:57;6.93;;;4.87;;
11319;SDS011;5715;48.234;14.320;2023-11-19T10:05:47;6.40;;;3.50;;
11319;SDS011;5715;48.234;14.320;2023-11-19T10:08:38;10.00;;;5.80;;
11319;SDS011;5715;48.234;14.320;2023-11-19T10:11:26;8.00;;;3.83;;
11319;SDS011;5715;48.234;14.320;2023-11-19T10:14:14;4.00;;;3.47;;
11319;SDS011;5715;48.234;14.320;2023-11-19T10:17:02;6.00;;;4.17;;
11319;SDS011;5715;48.234;14.320;2023-11-19T10:19:51;4.40;;;3.17;;
11319;SDS011;5715;48.234;14.320;2023-11-19T10:22:39;3.03;;;2.70;;
11319;SDS011;5715;48.234;14.320;2023-11-19T10:25:27;3.73;;;2.83;;
11319;SDS011;5715;48.234;14.320;2023-11-19T10:28:16;5.83;;;3.10;;
11319;SDS011;5715;48.234;14.320;2023-11-19T10:31:04;5.23;;;3.30;;
11319;SDS011;5715;48.234;14.320;2023-11-19T10:33:52;4.07;;;3.67;;
11319;SDS011;5715;48.234;14.320;2023-11-19T10:36:41;4.57;;;4.03;;
11319;SDS011;5715;48.234;14.320;2023-11-19T10:39:33;2.97;;;2.13;;
11319;SDS011;5715;48.234;14.320;2023-11-19T10:42:44;6.13;;;3.07;;
11319;SDS011;5715;48.234;14.320;2023-11-19T10:45:31;4.60;;;2.57;;
11319;SDS011;5715;48.234;14.320;2023-11-19T10:48:20;2.73;;;2.53;;
11319;SDS011;5715;48.234;14.320;2023-11-19T10:51:10;6.30;;;3.17;;
11319;SDS011;5715;48.234;14.320;2023-11-19T10:54:07;2.33;;;2.13;;
11319;SDS011;5715;48.234;14.320;2023-11-19T10:56:58;2.63;;;2.03;;
11319;SDS011;5715;48.234;14.320;2023-11-19T10:59:49;2.90;;;2.53;;
11319;SDS011;5715;48.234;14.320;2023-11-19T11:02:42;3.30;;;2.97;;
11319;SDS011;5715;48.234;14.320;2023-11-19T11:05:40;2.83;;;2.27;;
11319;SDS011;5715;48.234;14.320;2023-11-19T11:08:29;2.83;;;2.63;;
11319;SDS011;5715;48.234;14.320;2023-11-19T11:11:18;5.23;;;2.77;;
11319;SDS011;5715;48.234;14.320;2023-11-19T11:14:13;2.47;;;2.27;;
11319;SDS011;5715;48.234;14.320;2023-11-19T11:17:04;2.63;;;2.43;;
11319;SDS011;5715;48.234;14.320;2023-11-19T11:19:54;2.77;;;2.57;;
11319;SDS011;5715;48.234;14.320;2023-11-19T11:30:45;3.23;;;2.77;;
11319;SDS011;5715;48.234;14.320;2023-11-19T11:40:06;1.40;;;1.30;;
11319;SDS011;5715;48.234;14.320;2023-11-19T11:43:02;2.93;;;1.70;;
11319;SDS011;5715;48.234;14.320;2023-11-19T11:45:52;3.80;;;2.27;;
11319;SDS011;5715;48.234;14.320;2023-11-19T11:48:42;2.20;;;1.73;;
11319;SDS011;5715;48.234;14.320;2023-11-19T11:54:32;4.00;;;2.40;;
11319;SDS011;5715;48.234;14.320;2023-11-19T11:57:22;2.00;;;1.90;;
11319;SDS011;5715;48.234;14.320;2023-11-19T12:00:10;1.80;;;1.70;;
11319;SDS011;5715;48.234;14.320;2023-11-19T12:03:10;2.40;;;2.20;;
11319;SDS011;5715;48.234;14.320;2023-11-19T12:05:58;3.37;;;1.70;;
11319;SDS011;5715;48.234;14.320;2023-11-19T12:08:46;2.13;;;1.93;;
11319;SDS011;5715;48.234;14.320;2023-11-19T12:11:36;2.63;;;2.07;;
11319;SDS011;5715;48.234;14.320;2023-11-19T12:17:47;4.87;;;2.80;;
11319;SDS011;5715;48.234;14.320;2023-11-19T12:20:37;2.77;;;2.50;;
11319;SDS011;5715;48.234;14.320;2023-11-19T12:23:26;3.97;;;1.80;;
11319;SDS011;5715;48.234;14.320;2023-11-19T12:26:21;2.50;;;2.30;;
11319;SDS011;5715;48.234;14.320;2023-11-19T12:29:19;1.87;;;1.73;;
11319;SDS011;5715;48.234;14.320;2023-11-19T12:32:07;3.27;;;2.03;;
11319;SDS011;5715;48.234;14.320;2023-11-19T12:34:58;2.10;;;1.90;;
11319;SDS011;5715;48.234;14.320;2023-11-19T12:37:46;3.87;;;3.33;;
11319;SDS011;5715;48.234;14.320;2023-11-19T12:40:36;2.90;;;2.30;;
11319;SDS011;5715;48.234;14.320;2023-11-19T12:43:23;3.90;;;2.63;;
11319;SDS011;5715;48.234;14.320;2023-11-19T12:46:20;2.47;;;2.27;;
11319;SDS011;5715;48.234;14.320;2023-11-19T12:49:10;3.73;;;2.40;;
11319;SDS011;5715;48.234;14.320;2023-11-19T12:51:59;3.47;;;2.43;;
11319;SDS011;5715;48.234;14.320;2023-11-19T12:54:47;3.03;;;2.73;;
11319;SDS011;5715;48.234;14.320;2023-11-19T12:57:41;2.83;;;2.63;;
11319;SDS011;5715;48.234;14.320;2023-11-19T13:00:29;2.77;;;2.57;;
11319;SDS011;5715;48.234;14.320;2023-11-19T13:03:25;2.40;;;2.20;;
11319;SDS011;5715;48.234;14.320;2023-11-19T13:06:25;2.87;;;2.43;;
11319;SDS011;5715;48.234;14.320;2023-11-19T13:09:23;5.53;;;3.00;;
11319;SDS011;5715;48.234;14.320;2023-11-19T13:12:15;3.60;;;2.60;;
11319;SDS011;5715;48.234;14.320;2023-11-19T13:15:03;5.27;;;3.23;;
11319;SDS011;5715;48.234;14.320;2023-11-19T13:17:51;3.50;;;2.83;;
11319;SDS011;5715;48.234;14.320;2023-11-19T13:20:39;4.33;;;2.90;;
11319;SDS011;5715;48.234;14.320;2023-11-19T13:23:27;3.33;;;2.80;;
11319;SDS011;5715;48.234;14.320;2023-11-19T13:26:14;2.63;;;2.13;;
11319;SDS011;5715;48.234;14.320;2023-11-19T13:29:02;3.17;;;2.87;;
11319;SDS011;5715;48.234;14.320;2023-11-19T13:31:50;3.37;;;3.00;;
11319;SDS011;5715;48.234;14.320;2023-11-19T13:34:37;3.50;;;3.20;;
11319;SDS011;5715;48.234;14.320;2023-11-19T13:37:27;2.10;;;1.83;;
11319;SDS011;5715;48.234;14.320;2023-11-19T13:40:14;2.47;;;2.27;;
11319;SDS011;5715;48.234;14.320;2023-11-19T13:43:02;2.43;;;2.13;;
11319;SDS011;5715;48.234;14.320;2023-11-19T13:45:50;3.33;;;2.30;;
11319;SDS011;5715;48.234;14.320;2023-11-19T13:48:39;3.60;;;2.60;;
11319;SDS011;5715;48.234;14.320;2023-11-19T13:51:27;3.27;;;2.47;;
11319;SDS011;5715;48.234;14.320;2023-11-19T13:54:15;3.33;;;2.87;;
11319;SDS011;5715;48.234;14.320;2023-11-19T13:57:02;2.37;;;2.17;;
11319;SDS011;5715;48.234;14.320;2023-11-19T13:59:50;2.27;;;2.07;;
11319;SDS011;5715;48.234;14.320;2023-11-19T14:02:39;1.47;;;1.37;;
11319;SDS011;5715;48.234;14.320;2023-11-19T14:05:27;2.30;;;2.10;;
11319;SDS011;5715;48.234;14.320;2023-11-19T14:08:19;2.87;;;2.60;;
11319;SDS011;5715;48.234;14.320;2023-11-19T14:11:11;2.83;;;2.53;;
11319;SDS011;5715;48.234;14.320;2023-11-19T14:13:59;3.53;;;3.03;;
11319;SDS011;5715;48.234;14.320;2023-11-19T14:16:47;2.73;;;2.53;;
11319;SDS011;5715;48.234;14.320;2023-11-19T14:19:34;3.17;;;2.30;;
11319;SDS011;5715;48.234;14.320;2023-11-19T14:22:22;5.47;;;2.43;;
11319;SDS011;5715;48.234;14.320;2023-11-19T14:25:11;4.00;;;2.07;;
11319;SDS011;5715;48.234;14.320;2023-11-19T14:27:59;4.20;;;2.30;;
11319;SDS011;5715;48.234;14.320;2023-11-19T14:30:47;2.47;;;2.27;;
11319;SDS011;5715;48.234;14.320;2023-11-19T14:33:40;2.83;;;2.30;;
11319;SDS011;5715;48.234;14.320;2023-11-19T14:36:28;2.17;;;1.97;;
11319;SDS011;5715;48.234;14.320;2023-11-19T14:39:15;3.37;;;2.40;;
11319;SDS011;5715;48.234;14.320;2023-11-19T14:42:03;3.43;;;1.97;;
11319;SDS011;5715;48.234;14.320;2023-11-19T14:44:51;2.20;;;2.07;;
11319;SDS011;5715;48.234;14.320;2023-11-19T14:47:39;2.53;;;2.33;;
11319;SDS011;5715;48.234;14.320;2023-11-19T14:50:27;3.97;;;2.37;;
11319;SDS011;5715;48.234;14.320;2023-11-19T14:53:14;3.67;;;2.17;;
11319;SDS011;5715;48.234;14.320;2023-11-19T14:56:02;2.33;;;2.00;;
11319;SDS011;5715;48.234;14.320;2023-11-19T14:58:51;2.30;;;2.10;;
11319;SDS011;5715;48.234;14.320;2023-11-19T15:01:39;2.40;;;2.20;;
11319;SDS011;5715;48.234;14.320;2023-11-19T15:04:27;2.00;;;1.90;;
11319;SDS011;5715;48.234;14.320;2023-11-19T15:07:15;3.10;;;1.80;;
11319;SDS011;5715;48.234;14.320;2023-11-19T15:10:02;2.67;;;1.70;;
11319;SDS011;5715;48.234;14.320;2023-11-19T15:12:56;2.40;;;2.13;;
11319;SDS011;5715;48.234;14.320;2023-11-19T15:15:44;3.60;;;3.03;;
11319;SDS011;5715;48.234;14.320;2023-11-19T15:18:32;2.07;;;1.97;;
11319;SDS011;5715;48.234;14.320;2023-11-19T15:21:19;2.40;;;2.07;;
11319;SDS011;5715;48.234;14.320;2023-11-19T15:24:07;2.70;;;2.43;;
11319;SDS011;5715;48.234;14.320;2023-11-19T15:26:56;2.00;;;1.90;;
11319;SDS011;5715;48.234;14.320;2023-11-19T15:30:00;3.07;;;2.60;;
11319;SDS011;5715;48.234;14.320;2023-11-19T15:32:49;3.40;;;2.40;;
11319;SDS011;5715;48.234;14.320;2023-11-19T15:35:36;2.70;;;2.43;;
11319;SDS011;5715;48.234;14.320;2023-11-19T15:38:24;2.23;;;2.07;;
11319;SDS011;5715;48.234;14.320;2023-11-19T15:41:12;12.73;;;3.03;;
11319;SDS011;5715;48.234;14.320;2023-11-19T15:44:00;2.03;;;1.90;;
11319;SDS011;5715;48.234;14.320;2023-11-19T15:46:50;2.83;;;2.20;;
11319;SDS011;5715;48.234;14.320;2023-11-19T15:49:38;2.57;;;2.20;;
11319;SDS011;5715;48.234;14.320;2023-11-19T15:52:26;4.83;;;2.63;;
11319;SDS011;5715;48.234;14.320;2023-11-19T15:55:13;5.23;;;2.90;;
11319;SDS011;5715;48.234;14.320;2023-11-19T15:58:01;3.80;;;2.90;;
11319;SDS011;5715;48.234;14.320;2023-11-19T16:00:48;2.50;;;2.30;;
11319;SDS011;5715;48.234;14.320;2023-11-19T16:03:36;3.17;;;2.87;;
11319;SDS011;5715;48.234;14.320;2023-11-19T16:06:26;2.97;;;2.67;;
11319;SDS011;5715;48.234;14.320;2023-11-19T16:09:14;8.67;;;3.50;;
11319;SDS011;5715;48.234;14.320;2023-11-19T16:12:05;5.57;;;3.50;;
11319;SDS011;5715;48.234;14.320;2023-11-19T16:14:54;5.23;;;3.53;;
11319;SDS011;5715;48.234;14.320;2023-11-19T16:17:42;4.27;;;3.40;;
11319;SDS011;5715;48.234;14.320;2023-11-19T16:20:31;4.30;;;3.53;;
11319;SDS011;5715;48.234;14.320;2023-11-19T16:23:21;5.93;;;3.70;;
11319;SDS011;5715;48.234;14.320;2023-11-19T16:26:08;3.73;;;3.30;;
11319;SDS011;5715;48.234;14.320;2023-11-19T16:28:57;4.70;;;3.67;;
11319;SDS011;5715;48.234;14.320;2023-11-19T16:31:45;4.03;;;3.30;;
11319;SDS011;5715;48.234;14.320;2023-11-19T16:34:35;3.37;;;3.07;;
11319;SDS011;5715;48.234;14.320;2023-11-19T16:37:28;4.83;;;4.10;;
11319;SDS011;5715;48.234;14.320;2023-11-19T16:40:16;4.73;;;4.07;;
11319;SDS011;5715;48.234;14.320;2023-11-19T16:43:05;4.30;;;3.83;;
11319;SDS011;5715;48.234;14.320;2023-11-19T16:45:53;2.93;;;2.73;;
11319;SDS011;5715;48.234;14.320;2023-11-19T16:48:41;6.23;;;4.10;;
11319;SDS011;5715;48.234;14.320;2023-11-19T16:51:31;5.60;;;3.37;;
11319;SDS011;5715;48.234;14.320;2023-11-19T16:54:20;4.23;;;3.83;;
11319;SDS011;5715;48.234;14.320;2023-11-19T16:57:08;4.33;;;3.73;;
11319;SDS011;5715;48.234;14.320;2023-11-19T16:59:56;3.30;;;2.50;;
11319;SDS011;5715;48.234;14.320;2023-11-19T17:02:44;3.70;;;2.97;;
11319;SDS011;5715;48.234;14.320;2023-11-19T17:05:34;4.90;;;3.63;;
11319;SDS011;5715;48.234;14.320;2023-11-19T17:08:24;5.57;;;3.73;;
11319;SDS011;5715;48.234;14.320;2023-11-19T17:11:12;9.10;;;4.23;;
11319;SDS011;5715;48.234;14.320;2023-11-19T17:14:00;5.53;;;3.97;;
11319;SDS011;5715;48.234;14.320;2023-11-19T17:16:48;4.93;;;4.17;;
11319;SDS011;5715;48.234;14.320;2023-11-19T17:19:35;11.37;;;4.43;;
11319;SDS011;5715;48.234;14.320;2023-11-19T17:22:23;7.43;;;5.90;;